PWSweather.com
Personal Weather Stations
Station Observations
IHTIMAN1
Neighbourhood 1, IhtimanBG 2050

Neighbourhood 1IhtimanBG 2050

Lat: 42.436852, Lon: 23.817921

Elevation: 2066

Station Type: Oregon Scientific WMR968

http://ihtiman-meteo.com

High Low Average
Temperature 87.1°F30.6°C 59.5°F15.3°C 69.9°F21.1°C
Dew Point 68.4°F20.2°C 55.8°F13.2°C 62.9°F17.2°C
Winds 13.8 mph 22.2 kmh Calm Calm 3.0 mph WSW4.8 kmh WSW
Wind Gusts 18.4 mph29.6 kmh -- 4.0 mph6.4 kmh
Humidity 98% 43% 81%
Pressure 30.03 in1016.9 mb 29.91 in1012.9 mb -
Precipitation 0.14 in3.6 mm - -
Hour Temp Dew Point Humidity Winds Wind Gusts Pressure Precip Precip Rate Daily Precip Total
12:00 AM 64.4°F18.0°C 61.7°F16.5°C 91% Calm Calm -- 30.00 in1015.9 mb - 0.00 in0.0 mm 0.00 in0.0 mm
12:10 AM 64.2°F17.9°C 61.8°F16.6°C 92% Calm Calm -- 30.00 in1015.9 mb - 0.00 in0.0 mm 0.00 in0.0 mm
12:20 AM 63.9°F17.7°C 61.5°F16.4°C 92% Calm Calm -- 30.00 in1015.9 mb - 0.00 in0.0 mm 0.00 in0.0 mm
12:30 AM 63.9°F17.7°C 61.8°F16.6°C 93% Calm Calm -- 30.00 in1015.9 mb - 0.00 in0.0 mm 0.00 in0.0 mm
12:40 AM 63.6°F17.6°C 61.5°F16.4°C 93% Calm Calm -- 30.00 in1015.9 mb - 0.00 in0.0 mm 0.00 in0.0 mm
12:50 AM 63.3°F17.4°C 61.2°F16.2°C 93% Calm Calm -- 30.00 in1015.9 mb - 0.00 in0.0 mm 0.00 in0.0 mm
01:00 AM 63.0°F17.2°C 61.2°F16.2°C 94% Calm Calm -- 30.00 in1015.9 mb - 0.00 in0.0 mm 0.00 in0.0 mm
01:10 AM 62.8°F17.1°C 61.0°F16.1°C 94% Calm Calm -- 30.00 in1015.9 mb - 0.00 in0.0 mm 0.00 in0.0 mm
01:20 AM 62.6°F17.0°C 60.8°F16.0°C 94% Calm Calm -- 30.00 in1015.9 mb - 0.00 in0.0 mm 0.00 in0.0 mm
01:30 AM 62.6°F17.0°C 61.1°F16.2°C 95% Calm Calm -- 30.00 in1015.9 mb - 0.00 in0.0 mm 0.00 in0.0 mm
01:40 AM 62.4°F16.9°C 61.0°F16.1°C 95% Calm Calm -- 30.00 in1015.9 mb - 0.00 in0.0 mm 0.00 in0.0 mm
01:50 AM 62.2°F16.8°C 61.1°F16.2°C 96% Calm Calm -- 29.97 in1014.9 mb - 0.00 in0.0 mm 0.00 in0.0 mm
02:00 AM 62.1°F16.7°C 60.9°F16.1°C 96% Calm Calm -- 29.97 in1014.9 mb - 0.00 in0.0 mm 0.00 in0.0 mm
02:10 AM 62.1°F16.7°C 60.9°F16.1°C 96% Calm Calm -- 29.97 in1014.9 mb - 0.00 in0.0 mm 0.00 in0.0 mm
02:20 AM 61.9°F16.6°C 60.7°F15.9°C 96% Calm Calm -- 29.97 in1014.9 mb - 0.00 in0.0 mm 0.00 in0.0 mm
02:30 AM 61.9°F16.6°C 61.0°F16.1°C 97% Calm Calm -- 29.97 in1014.9 mb - 0.00 in0.0 mm 0.00 in0.0 mm
02:40 AM 61.9°F16.6°C 61.0°F16.1°C 97% Calm Calm -- 29.97 in1014.9 mb - 0.00 in0.0 mm 0.00 in0.0 mm
02:50 AM 61.7°F16.5°C 60.8°F16.0°C 97% Calm Calm -- 29.94 in1013.9 mb - 0.00 in0.0 mm 0.00 in0.0 mm
03:00 AM 61.5°F16.4°C 60.6°F15.9°C 97% Calm Calm -- 29.94 in1013.9 mb - 0.00 in0.0 mm 0.00 in0.0 mm
03:10 AM 61.1°F16.2°C 60.3°F15.7°C 97% Calm Calm -- 29.94 in1013.9 mb - 0.00 in0.0 mm 0.00 in0.0 mm
03:20 AM 61.0°F16.1°C 60.1°F15.6°C 97% Calm Calm -- 29.94 in1013.9 mb - 0.00 in0.0 mm 0.00 in0.0 mm
03:30 AM 60.8°F16.0°C 59.9°F15.5°C 97% Calm Calm -- 29.94 in1013.9 mb - 0.00 in0.0 mm 0.00 in0.0 mm
03:40 AM 60.6°F15.9°C 60.1°F15.6°C 98% Calm Calm -- 29.94 in1013.9 mb - 0.00 in0.0 mm 0.00 in0.0 mm
03:50 AM 60.4°F15.8°C 59.9°F15.5°C 98% Calm Calm -- 29.94 in1013.9 mb - 0.00 in0.0 mm 0.00 in0.0 mm
04:00 AM 60.3°F15.7°C 59.7°F15.4°C 98% Calm Calm -- 29.94 in1013.9 mb - 0.00 in0.0 mm 0.00 in0.0 mm
04:10 AM 60.3°F15.7°C 59.7°F15.4°C 98% Calm Calm -- 29.94 in1013.9 mb - 0.00 in0.0 mm 0.00 in0.0 mm
04:30 AM 60.4°F15.8°C 59.8°F15.4°C 98% Calm Calm -- 29.94 in1013.9 mb - 0.00 in0.0 mm 0.00 in0.0 mm
04:40 AM 60.1°F15.6°C 59.5°F15.3°C 98% Calm Calm -- 29.94 in1013.9 mb - 0.00 in0.0 mm 0.00 in0.0 mm
04:50 AM 59.7°F15.4°C 59.2°F15.1°C 98% Calm Calm -- 29.94 in1013.9 mb - 0.00 in0.0 mm 0.00 in0.0 mm
05:00 AM 59.7°F15.4°C 59.2°F15.1°C 98% Calm Calm 3.5 mph5.6 kmh 29.94 in1013.9 mb - 0.00 in0.0 mm 0.00 in0.0 mm
05:10 AM 59.9°F15.5°C 59.3°F15.2°C 98% Calm Calm -- 29.94 in1013.9 mb - 0.00 in0.0 mm 0.00 in0.0 mm
05:20 AM 59.6°F15.3°C 59.0°F15.0°C 98% Calm Calm -- 29.94 in1013.9 mb - 0.00 in0.0 mm 0.00 in0.0 mm
05:30 AM 59.5°F15.3°C 59.0°F15.0°C 98% 2.3 mph SE3.7 kmh SE 2.3 mph3.7 kmh 29.94 in1013.9 mb - 0.00 in0.0 mm 0.00 in0.0 mm
05:40 AM 59.5°F15.3°C 59.0°F15.0°C 98% 2.3 mph NE3.7 kmh NE 3.5 mph5.6 kmh 29.94 in1013.9 mb - 0.00 in0.0 mm 0.00 in0.0 mm
05:50 AM 60.3°F15.7°C 59.7°F15.4°C 98% Calm Calm -- 29.91 in1012.9 mb - 0.00 in0.0 mm 0.00 in0.0 mm
06:00 AM 61.2°F16.2°C 60.6°F15.9°C 98% Calm Calm -- 29.94 in1013.9 mb - 0.00 in0.0 mm 0.00 in0.0 mm
06:10 AM 61.9°F16.6°C 61.3°F16.3°C 98% 1.2 mph SW1.9 kmh SW 3.5 mph5.6 kmh 29.94 in1013.9 mb - 0.00 in0.0 mm 0.00 in0.0 mm
06:20 AM 61.8°F16.6°C 61.2°F16.2°C 98% Calm Calm -- 29.94 in1013.9 mb - 0.00 in0.0 mm 0.00 in0.0 mm
06:30 AM 62.9°F17.2°C 62.3°F16.8°C 98% Calm Calm -- 29.94 in1013.9 mb - 0.00 in0.0 mm 0.00 in0.0 mm
06:40 AM 64.0°F17.8°C 63.4°F17.4°C 98% Calm Calm -- 29.94 in1013.9 mb - 0.00 in0.0 mm 0.00 in0.0 mm
06:50 AM 65.2°F18.4°C 64.3°F17.9°C 97% Calm Calm -- 29.94 in1013.9 mb - 0.00 in0.0 mm 0.00 in0.0 mm
07:00 AM 66.7°F19.3°C 65.0°F18.3°C 94% Calm Calm -- 29.94 in1013.9 mb - 0.00 in0.0 mm 0.00 in0.0 mm
07:10 AM 67.5°F19.7°C 64.8°F18.2°C 91% Calm Calm -- 29.94 in1013.9 mb - 0.00 in0.0 mm 0.00 in0.0 mm
07:20 AM 68.3°F20.2°C 65.0°F18.3°C 89% Calm Calm -- 29.94 in1013.9 mb - 0.00 in0.0 mm 0.00 in0.0 mm
07:30 AM 69.8°F21.0°C 65.7°F18.7°C 87% Calm Calm -- 29.94 in1013.9 mb - 0.00 in0.0 mm 0.00 in0.0 mm
07:40 AM 69.8°F21.0°C 65.1°F18.4°C 85% 1.2 mph NNE1.9 kmh NNE 3.5 mph5.6 kmh 29.94 in1013.9 mb - 0.00 in0.0 mm 0.00 in0.0 mm
07:50 AM 69.8°F21.0°C 65.4°F18.6°C 86% Calm Calm 3.5 mph5.6 kmh 29.94 in1013.9 mb - 0.00 in0.0 mm 0.00 in0.0 mm
08:00 AM 70.1°F21.2°C 65.7°F18.7°C 86% 2.3 mph 3.7 kmh 3.5 mph5.6 kmh 29.94 in1013.9 mb - 0.00 in0.0 mm 0.00 in0.0 mm
08:10 AM 70.9°F21.6°C 65.8°F18.8°C 84% 2.3 mph N3.7 kmh N 3.5 mph5.6 kmh 29.94 in1013.9 mb - 0.00 in0.0 mm 0.00 in0.0 mm
08:20 AM 72.4°F22.4°C 66.2°F19.0°C 81% 1.2 mph NNW1.9 kmh NNW 5.8 mph9.3 kmh 29.94 in1013.9 mb - 0.00 in0.0 mm 0.00 in0.0 mm
08:30 AM 73.5°F23.1°C 66.2°F19.0°C 78% 3.5 mph W5.6 kmh W 4.6 mph7.4 kmh 29.94 in1013.9 mb - 0.00 in0.0 mm 0.00 in0.0 mm
08:40 AM 74.1°F23.4°C 65.7°F18.7°C 75% 4.6 mph N7.4 kmh N 5.8 mph9.3 kmh 29.94 in1013.9 mb - 0.00 in0.0 mm 0.00 in0.0 mm
08:50 AM 73.4°F23.0°C 65.7°F18.7°C 77% 3.5 mph NW5.6 kmh NW 5.8 mph9.3 kmh 29.94 in1013.9 mb - 0.00 in0.0 mm 0.00 in0.0 mm
09:00 AM 73.5°F23.1°C 66.6°F19.2°C 79% 4.6 mph N7.4 kmh N 6.9 mph11.1 kmh 29.94 in1013.9 mb - 0.00 in0.0 mm 0.00 in0.0 mm
09:10 AM 73.2°F22.9°C 64.8°F18.2°C 75% 5.8 mph N9.3 kmh N 9.2 mph14.8 kmh 29.94 in1013.9 mb - 0.00 in0.0 mm 0.00 in0.0 mm
09:20 AM 73.7°F23.2°C 64.9°F18.3°C 74% 6.9 mph N11.1 kmh N 11.5 mph18.5 kmh 29.94 in1013.9 mb - 0.00 in0.0 mm 0.00 in0.0 mm
09:30 AM 74.3°F23.5°C 64.7°F18.2°C 72% 5.8 mph NE9.3 kmh NE 8.1 mph13.0 kmh 29.94 in1013.9 mb - 0.00 in0.0 mm 0.00 in0.0 mm
09:40 AM 76.5°F24.7°C 66.8°F19.3°C 72% 4.6 mph NNW7.4 kmh NNW 8.1 mph13.0 kmh 29.94 in1013.9 mb - 0.00 in0.0 mm 0.00 in0.0 mm
09:50 AM 77.3°F25.2°C 65.5°F18.6°C 67% 4.6 mph N7.4 kmh N 5.8 mph9.3 kmh 29.94 in1013.9 mb - 0.00 in0.0 mm 0.00 in0.0 mm
10:00 AM 77.3°F25.2°C 64.2°F17.9°C 64% 5.8 mph NNW9.3 kmh NNW 8.1 mph13.0 kmh 29.94 in1013.9 mb - 0.00 in0.0 mm 0.00 in0.0 mm
10:10 AM 77.4°F25.2°C 63.8°F17.7°C 63% 3.5 mph NNW5.6 kmh NNW 3.5 mph5.6 kmh 29.94 in1013.9 mb - 0.00 in0.0 mm 0.00 in0.0 mm
10:20 AM 77.6°F25.3°C 61.6°F16.4°C 58% 6.9 mph NW11.1 kmh NW 12.7 mph20.4 kmh 29.94 in1013.9 mb - 0.00 in0.0 mm 0.00 in0.0 mm
10:30 AM 79.9°F26.6°C 61.7°F16.5°C 54% 9.2 mph NNW14.8 kmh NNW 10.4 mph16.7 kmh 29.94 in1013.9 mb - 0.00 in0.0 mm 0.00 in0.0 mm
10:40 AM 80.1°F26.7°C 61.9°F16.6°C 54% 6.9 mph N11.1 kmh N 8.1 mph13.0 kmh 29.94 in1013.9 mb - 0.00 in0.0 mm 0.00 in0.0 mm
10:50 AM 79.1°F26.2°C 61.5°F16.4°C 55% 6.9 mph NW11.1 kmh NW 12.7 mph20.4 kmh 29.94 in1013.9 mb - 0.00 in0.0 mm 0.00 in0.0 mm
11:00 AM 80.5°F26.9°C 61.8°F16.6°C 53% 6.9 mph NNW11.1 kmh NNW 9.2 mph14.8 kmh 29.94 in1013.9 mb - 0.00 in0.0 mm 0.00 in0.0 mm
11:10 AM 82.1°F27.8°C 62.2°F16.8°C 51% 6.9 mph NW11.1 kmh NW 10.4 mph16.7 kmh 29.94 in1013.9 mb - 0.00 in0.0 mm 0.00 in0.0 mm
11:20 AM 82.3°F27.9°C 61.8°F16.6°C 50% 6.9 mph NNW11.1 kmh NNW 11.5 mph18.5 kmh 29.94 in1013.9 mb - 0.00 in0.0 mm 0.00 in0.0 mm
11:30 AM 82.4°F28.0°C 61.9°F16.6°C 50% 8.1 mph NNW13.0 kmh NNW 8.1 mph13.0 kmh 29.94 in1013.9 mb - 0.00 in0.0 mm 0.00 in0.0 mm
11:40 AM 82.3°F27.9°C 61.8°F16.6°C 50% 6.9 mph WNW11.1 kmh WNW 11.5 mph18.5 kmh 29.94 in1013.9 mb - 0.00 in0.0 mm 0.00 in0.0 mm
11:50 AM 83.1°F28.4°C 61.4°F16.3°C 48% 5.8 mph N9.3 kmh N 8.1 mph13.0 kmh 29.94 in1013.9 mb - 0.00 in0.0 mm 0.00 in0.0 mm
12:00 PM 83.8°F28.8°C 62.0°F16.7°C 48% 5.8 mph NNE9.3 kmh NNE 8.1 mph13.0 kmh 29.91 in1012.9 mb - 0.00 in0.0 mm 0.00 in0.0 mm
12:10 PM 84.0°F28.9°C 61.6°F16.4°C 47% 5.8 mph NNW9.3 kmh NNW 5.8 mph9.3 kmh 29.91 in1012.9 mb - 0.00 in0.0 mm 0.00 in0.0 mm
12:20 PM 84.2°F29.0°C 60.6°F15.9°C 45% 4.6 mph NNW7.4 kmh NNW 5.8 mph9.3 kmh 29.91 in1012.9 mb - 0.00 in0.0 mm 0.00 in0.0 mm
12:30 PM 85.6°F29.8°C 62.5°F16.9°C 46% 8.1 mph N13.0 kmh N 10.4 mph16.7 kmh 29.94 in1013.9 mb - 0.00 in0.0 mm 0.00 in0.0 mm
12:40 PM 87.1°F30.6°C 61.9°F16.6°C 43% 6.9 mph 11.1 kmh 9.2 mph14.8 kmh 29.94 in1013.9 mb - 0.00 in0.0 mm 0.00 in0.0 mm
12:50 PM 85.3°F29.6°C 60.9°F16.1°C 44% 5.8 mph N9.3 kmh N 9.2 mph14.8 kmh 29.94 in1013.9 mb - 0.00 in0.0 mm 0.00 in0.0 mm
01:00 PM 79.9°F26.6°C 59.0°F15.0°C 49% 11.5 mph 18.5 kmh 17.3 mph27.8 kmh 29.91 in1012.9 mb - 0.00 in0.0 mm 0.00 in0.0 mm
01:10 PM 79.9°F26.6°C 59.0°F15.0°C 49% 10.4 mph N16.7 kmh N 17.3 mph27.8 kmh 29.91 in1012.9 mb - 0.00 in0.0 mm 0.00 in0.0 mm
01:20 PM 75.2°F24.0°C 55.8°F13.2°C 51% 9.2 mph N14.8 kmh N 12.7 mph20.4 kmh 29.94 in1013.9 mb - 0.00 in0.0 mm 0.00 in0.0 mm
01:30 PM 74.7°F23.7°C 62.5°F16.9°C 66% 6.9 mph N11.1 kmh N 11.5 mph18.5 kmh 29.94 in1013.9 mb - 0.00 in0.0 mm 0.00 in0.0 mm
01:40 PM 76.1°F24.5°C 62.1°F16.7°C 62% 2.3 mph NE3.7 kmh NE 5.8 mph9.3 kmh 29.94 in1013.9 mb - 0.00 in0.0 mm 0.00 in0.0 mm
01:50 PM 79.2°F26.2°C 62.2°F16.8°C 56% 5.8 mph N9.3 kmh N 8.1 mph13.0 kmh 29.94 in1013.9 mb - 0.00 in0.0 mm 0.00 in0.0 mm
02:00 PM 78.3°F25.7°C 60.8°F16.0°C 55% 5.8 mph NNW9.3 kmh NNW 10.4 mph16.7 kmh 29.94 in1013.9 mb - 0.00 in0.0 mm 0.00 in0.0 mm
02:10 PM 75.9°F24.4°C 61.0°F16.1°C 60% 6.9 mph NW11.1 kmh NW 10.4 mph16.7 kmh 29.94 in1013.9 mb - 0.00 in0.0 mm 0.00 in0.0 mm
02:20 PM 74.4°F23.6°C 61.9°F16.6°C 65% 4.6 mph NNW7.4 kmh NNW 8.1 mph13.0 kmh 29.91 in1012.9 mb - 0.00 in0.0 mm 0.00 in0.0 mm
02:30 PM 73.4°F23.0°C 64.2°F17.9°C 73% 6.9 mph N11.1 kmh N 10.4 mph16.7 kmh 29.94 in1013.9 mb - 0.00 in0.0 mm 0.00 in0.0 mm
02:40 PM 77.6°F25.3°C 66.6°F19.2°C 69% 8.1 mph N13.0 kmh N 10.4 mph16.7 kmh 29.94 in1013.9 mb - 0.00 in0.0 mm 0.00 in0.0 mm
02:50 PM 77.2°F25.1°C 65.0°F18.3°C 66% 9.2 mph NNW14.8 kmh NNW 12.7 mph20.4 kmh 29.94 in1013.9 mb - 0.00 in0.0 mm 0.00 in0.0 mm
03:00 PM 76.9°F24.9°C 68.4°F20.2°C 75% 4.6 mph NNW7.4 kmh NNW 9.2 mph14.8 kmh 29.94 in1013.9 mb - 0.00 in0.0 mm 0.00 in0.0 mm
03:10 PM 76.5°F24.7°C 67.2°F19.6°C 73% 6.9 mph N11.1 kmh N 9.2 mph14.8 kmh 29.94 in1013.9 mb - 0.00 in0.0 mm 0.00 in0.0 mm
03:20 PM 78.3°F25.7°C 66.4°F19.1°C 67% 6.9 mph N11.1 kmh N 9.2 mph14.8 kmh 29.94 in1013.9 mb - 0.00 in0.0 mm 0.00 in0.0 mm
03:30 PM 77.1°F25.1°C 66.1°F18.9°C 69% 5.8 mph N9.3 kmh N 8.1 mph13.0 kmh 29.94 in1013.9 mb - 0.00 in0.0 mm 0.00 in0.0 mm
03:40 PM 79.7°F26.5°C 66.0°F18.9°C 63% 8.1 mph NNW13.0 kmh NNW 12.7 mph20.4 kmh 29.94 in1013.9 mb - 0.00 in0.0 mm 0.00 in0.0 mm
03:50 PM 81.2°F27.3°C 65.5°F18.6°C 59% 6.9 mph NNW11.1 kmh NNW 10.4 mph16.7 kmh 29.94 in1013.9 mb - 0.00 in0.0 mm 0.00 in0.0 mm
04:00 PM 81.6°F27.6°C 64.9°F18.3°C 57% 6.9 mph NNW11.1 kmh NNW 10.4 mph16.7 kmh 29.94 in1013.9 mb - 0.00 in0.0 mm 0.00 in0.0 mm
04:10 PM 78.2°F25.7°C 63.2°F17.3°C 60% 5.8 mph NW9.3 kmh NW 8.1 mph13.0 kmh 29.94 in1013.9 mb - 0.00 in0.0 mm 0.00 in0.0 mm
04:20 PM 76.5°F24.7°C 63.4°F17.4°C 64% 4.6 mph NW7.4 kmh NW 8.1 mph13.0 kmh 29.94 in1013.9 mb - 0.00 in0.0 mm 0.00 in0.0 mm
04:30 PM 76.1°F24.5°C 63.9°F17.7°C 66% 5.8 mph NW9.3 kmh NW 8.1 mph13.0 kmh 29.94 in1013.9 mb - 0.00 in0.0 mm 0.00 in0.0 mm
04:40 PM 76.2°F24.6°C 64.0°F17.8°C 66% 6.9 mph WNW11.1 kmh WNW 8.1 mph13.0 kmh 29.94 in1013.9 mb - 0.00 in0.0 mm 0.00 in0.0 mm
04:50 PM 76.7°F24.8°C 64.1°F17.8°C 65% 5.8 mph WNW9.3 kmh WNW 5.8 mph9.3 kmh 29.94 in1013.9 mb - 0.00 in0.0 mm 0.00 in0.0 mm
05:00 PM 77.0°F25.0°C 63.9°F17.7°C 64% 5.8 mph W9.3 kmh W 6.9 mph11.1 kmh 29.94 in1013.9 mb - 0.00 in0.0 mm 0.00 in0.0 mm
05:10 PM 75.9°F24.4°C 63.3°F17.4°C 65% 5.8 mph NW9.3 kmh NW 5.8 mph9.3 kmh 29.94 in1013.9 mb - 0.00 in0.0 mm 0.00 in0.0 mm
05:20 PM 76.9°F24.9°C 64.7°F18.2°C 66% 5.8 mph NW9.3 kmh NW 10.4 mph16.7 kmh 29.94 in1013.9 mb - 0.00 in0.0 mm 0.00 in0.0 mm
05:30 PM 75.9°F24.4°C 64.2°F17.9°C 67% 5.8 mph NNW9.3 kmh NNW 6.9 mph11.1 kmh 29.94 in1013.9 mb - 0.00 in0.0 mm 0.00 in0.0 mm
05:40 PM 75.6°F24.2°C 64.3°F17.9°C 68% 5.8 mph NNW9.3 kmh NNW 8.1 mph13.0 kmh 29.94 in1013.9 mb - 0.00 in0.0 mm 0.00 in0.0 mm
05:50 PM 75.1°F23.9°C 63.4°F17.4°C 67% 5.8 mph NW9.3 kmh NW 8.1 mph13.0 kmh 29.94 in1013.9 mb - 0.00 in0.0 mm 0.00 in0.0 mm
06:00 PM 75.6°F24.2°C 63.4°F17.4°C 66% 5.8 mph NW9.3 kmh NW 8.1 mph13.0 kmh 29.94 in1013.9 mb - 0.00 in0.0 mm 0.00 in0.0 mm
06:10 PM 75.0°F23.9°C 63.7°F17.6°C 68% 3.5 mph WNW5.6 kmh WNW 5.8 mph9.3 kmh 29.94 in1013.9 mb - 0.00 in0.0 mm 0.00 in0.0 mm
06:20 PM 74.5°F23.6°C 63.6°F17.6°C 69% 3.5 mph N5.6 kmh N 5.8 mph9.3 kmh 29.94 in1013.9 mb - 0.00 in0.0 mm 0.00 in0.0 mm
06:30 PM 73.9°F23.3°C 62.2°F16.8°C 67% 13.8 mph N22.2 kmh N 18.4 mph29.6 kmh 29.97 in1014.9 mb - 0.00 in0.0 mm 0.00 in0.0 mm
06:40 PM 67.5°F19.7°C 61.1°F16.2°C 80% 4.6 mph N7.4 kmh N 5.8 mph9.3 kmh 29.97 in1014.9 mb - 0.14 in3.6 mm 0.14 in3.6 mm
06:50 PM 66.9°F19.4°C 64.5°F18.1°C 92% 3.5 mph N5.6 kmh N 3.5 mph5.6 kmh 29.97 in1014.9 mb - 0.14 in3.6 mm 0.14 in3.6 mm
07:00 PM 66.7°F19.3°C 64.7°F18.2°C 93% 2.3 mph N3.7 kmh N 5.8 mph9.3 kmh 29.97 in1014.9 mb - 0.14 in3.6 mm 0.14 in3.6 mm
07:10 PM 67.3°F19.6°C 66.4°F19.1°C 97% 3.5 mph NW5.6 kmh NW 5.8 mph9.3 kmh 29.97 in1014.9 mb - 0.14 in3.6 mm 0.14 in3.6 mm
07:20 PM 67.1°F19.5°C 66.2°F19.0°C 97% 1.2 mph NNW1.9 kmh NNW 3.5 mph5.6 kmh 29.97 in1014.9 mb - 0.14 in3.6 mm 0.14 in3.6 mm
07:30 PM 66.9°F19.4°C 66.0°F18.9°C 97% 3.5 mph WNW5.6 kmh WNW 5.8 mph9.3 kmh 29.97 in1014.9 mb - 0.14 in3.6 mm 0.14 in3.6 mm
07:40 PM 66.9°F19.4°C 66.0°F18.9°C 97% 3.5 mph W5.6 kmh W 3.5 mph5.6 kmh 29.97 in1014.9 mb - 0.00 in0.0 mm 0.14 in3.6 mm
07:50 PM 66.7°F19.3°C 66.2°F19.0°C 98% Calm Calm -- 29.97 in1014.9 mb - 0.00 in0.0 mm 0.14 in3.6 mm
08:00 PM 66.7°F19.3°C 66.2°F19.0°C 98% Calm Calm -- 29.97 in1014.9 mb - 0.00 in0.0 mm 0.14 in3.6 mm
08:10 PM 66.6°F19.2°C 66.0°F18.9°C 98% Calm Calm -- 29.97 in1014.9 mb - 0.00 in0.0 mm 0.14 in3.6 mm
08:20 PM 66.4°F19.1°C 65.8°F18.8°C 98% 2.3 mph W3.7 kmh W 2.3 mph3.7 kmh 30.00 in1015.9 mb - 0.00 in0.0 mm 0.14 in3.6 mm
08:30 PM 66.2°F19.0°C 65.6°F18.7°C 98% Calm Calm -- 30.00 in1015.9 mb - 0.00 in0.0 mm 0.14 in3.6 mm
08:40 PM 66.0°F18.9°C 65.4°F18.6°C 98% Calm Calm 2.3 mph3.7 kmh 30.00 in1015.9 mb - 0.00 in0.0 mm 0.14 in3.6 mm
08:50 PM 66.0°F18.9°C 65.4°F18.6°C 98% Calm Calm -- 30.00 in1015.9 mb - 0.00 in0.0 mm 0.14 in3.6 mm
09:00 PM 65.8°F18.8°C 65.3°F18.5°C 98% Calm Calm -- 30.00 in1015.9 mb - 0.00 in0.0 mm 0.14 in3.6 mm
09:10 PM 65.5°F18.6°C 65.0°F18.3°C 98% Calm Calm -- 30.00 in1015.9 mb - 0.00 in0.0 mm 0.14 in3.6 mm
09:20 PM 65.2°F18.4°C 64.6°F18.1°C 98% Calm Calm -- 30.00 in1015.9 mb - 0.00 in0.0 mm 0.14 in3.6 mm
09:30 PM 64.8°F18.2°C 64.2°F17.9°C 98% Calm Calm -- 30.00 in1015.9 mb - 0.00 in0.0 mm 0.14 in3.6 mm
09:40 PM 64.6°F18.1°C 64.0°F17.8°C 98% Calm Calm -- 30.00 in1015.9 mb - 0.00 in0.0 mm 0.14 in3.6 mm
09:50 PM 64.6°F18.1°C 64.0°F17.8°C 98% Calm Calm -- 30.03 in1016.9 mb - 0.00 in0.0 mm 0.14 in3.6 mm
10:00 PM 64.6°F18.1°C 64.0°F17.8°C 98% Calm Calm -- 30.03 in1016.9 mb - 0.00 in0.0 mm 0.14 in3.6 mm
10:10 PM 64.0°F17.8°C 63.5°F17.5°C 98% Calm Calm -- 30.03 in1016.9 mb - 0.00 in0.0 mm 0.14 in3.6 mm
10:20 PM 63.7°F17.6°C 63.1°F17.3°C 98% Calm Calm -- 30.03 in1016.9 mb - 0.00 in0.0 mm 0.14 in3.6 mm
10:30 PM 63.7°F17.6°C 63.1°F17.3°C 98% Calm Calm -- 30.03 in1016.9 mb - 0.00 in0.0 mm 0.14 in3.6 mm
10:40 PM 63.7°F17.6°C 63.1°F17.3°C 98% Calm Calm -- 30.03 in1016.9 mb - 0.00 in0.0 mm 0.14 in3.6 mm
10:50 PM 63.5°F17.5°C 62.9°F17.2°C 98% Calm Calm -- 30.03 in1016.9 mb - 0.00 in0.0 mm 0.14 in3.6 mm
11:00 PM 63.1°F17.3°C 62.6°F17.0°C 98% Calm Calm -- 30.03 in1016.9 mb - 0.00 in0.0 mm 0.84 in21.3 mm
11:10 PM 62.7°F17.1°C 62.2°F16.8°C 98% Calm Calm -- 30.03 in1016.9 mb - 0.00 in0.0 mm 0.84 in21.3 mm
11:20 PM 62.2°F16.8°C 61.7°F16.5°C 98% Calm Calm -- 30.03 in1016.9 mb - 0.00 in0.0 mm 0.84 in21.3 mm
11:30 PM 61.7°F16.5°C 61.1°F16.2°C 98% Calm Calm -- 30.03 in1016.9 mb - 0.00 in0.0 mm 0.84 in21.3 mm
11:40 PM 61.2°F16.2°C 60.6°F15.9°C 98% Calm Calm -- 30.03 in1016.9 mb - 0.00 in0.0 mm 0.84 in21.3 mm
11:50 PM 60.8°F16.0°C 60.2°F15.7°C 98% Calm Calm -- 30.03 in1016.9 mb - 0.00 in0.0 mm 0.84 in21.3 mm